Extreme weather reports worldwide

High winds

Station
 
Location
 
Name
 
Wind
Knots
Gust
Knots
Vis
SM
Temp/Dew
C
Baro
inHg
METAR
 
KMWN 46 0.06 -14/-14 KMWN 301756Z 28046KT 1/16SM -SHSN FZFG BLSN VV000 M14/M14 RMK VRY LGT ICG 60001 4/009 931001 11144 21164
CWZV 39 45 9/9 CWZV 301800Z AUTO 22039G45KT 09/09 RMK AO1 3PAST HR 3001 PK WND 21045/1754 SLP978 P0001 T00920091 50006
LIMH IT Pian Rosà 36 46 0.06 -10/-11 29.91 LIMH 301755Z 05036G46KT 0100 -SN FZFG VV/// M10/M11 Q1013 RMK MON INVIS VAL INVIS VIS MIN 0100
CWEK 36 43 9/8 CWEK 301800Z AUTO 17036G43KT 10/08 RMK AO1 6062 PK WND 17043/1750 SLP888 T00970081 50018
CWZN 36 42 7/7 CWZN 301800Z AUTO 21036G42KT 08/08 RMK AO1 PK WND 21042/1758 SLP873 T00770075 56027

Station
 
Location
 
Name
 
Wind
Knots
Gust
Knots
Vis
SM
Temp/Dew
C
Baro
inHg
METAR
 
CWZL 35 47 12/8 CWZL 301800Z AUTO 22035G47KT 12/08 RMK AO1 PK WND 20047/1750 SLP918 T01210082 56014
CWGT 34 39 10/7 CWGT 301800Z AUTO 10034G39KT 10/07 RMK AO1 PK WND 10039/1747 SLP146 T01010073 58015
CWLC 34 44 10/8 CWLC 301800Z AUTO 15034G44KT 11/08 RMK AO1 PK WND 13050/1701 T01050083
CWLP 34 41 7/6 CWLP 301800Z AUTO 12034G41KT 08/07 RMK AO1 6PAST HR 8004 PK WND 12041/1758 SLP080 P0006 T00790066 50080
OGN ROYN JP Yonaguni Airport 34 3.11 19/14 30.12 ROYN 301800Z AUTO 01034KT 5000 HZ FEW037 OVC080 19/14 Q1020
CZF PACZ Cape Romanzof, US Cape Romanzof LRRS Airport 34 48 1.5 -16/-19 29.53 PACZ 301855Z AUTO 35034G48KT 220V090 1 1/2SM -SN BR BKN017 M16/M19 A2953 RMK AO2 SNB1755 SLP021 P0000 T11651195
CWHL 33 40 8/7 CWHL 301800Z AUTO 15033G40KT 09/07 RMK AO1 4PAST HR 6039 PK WND 15040/1752 SLP901 P0009 T00850073 50028
CWWL 33 39 10/9 CWWL 301800Z AUTO 17033G39KT 10/09 RMK AO1 5028 PK WND 17039/1755 SLP912 T01030092 50018
LVM KLVM Livingston, US Mission Field 33 45 10 9/-5 30.04 KLVM 301853Z AUTO 23033G45KT 10SM FEW090 09/M05 A3004 RMK AO2 PK WND 23046/1836 SLP174 T00941050
VIE LOWW Vienna, AT Vienna International Airport 31 44 6.21 5/0 29.65 LOWW 301850Z 28031G44KT 9999 -RA FEW026 05/00 Q1004 NOSIG
EHM PAEH Cape Newenham, US Cape Newenham LRRS Airport 31 38 7 -20/-23 29.38 PAEH 301855Z AUTO 35031G38KT 220V120 7SM BKN015 M21/M24 A2938 RMK AO2 PK WND 34038/1833 SLP975 T12071238
NLG PAOU Nelson Lagoon, US Nelson Lagoon Airport 31 37 1.25 -8/-12 29.45 PAOU 301856Z AUTO 32031G37KT 1 1/4SM -SN FEW009 BKN026 OVC047 M08/M12 A2945 RMK AO2 PK WND 31037/1848 VIS 1/4V5 SLP973 P0000 T10831122 FZRANO
CWQS 30 39 9/8 CWQS 301800Z AUTO 19030G39KT 10/09 RMK AO1 PK WND 18043/1707 SLP901 T00980086 55002
YEK CYEK Arviat, CA Arviat Airport 30 35 0.5 -20/-23 29.62 CYEK 301800Z 32030G35KT 1/2SM IC BLSN OVC120 M20/M23 A2962 RMK BLSN7AC1 SLP035
ETHA Altenstadt, DE Altenstadt Army Airfield 30 42 1.99 1/1 29.85 ETHA 301820Z 26030G42KT 3200 -SNRA BLSN BKN017 01/01 Q1011 BLACKYLO
CWNE 29 35 0/-3 CWNE 301800Z AUTO 28029G35KT M00/M04 RMK AO1 3021 PK WND 29035/1746 SLP998 T10011036 50009
PHO PAPO Point Hope, US Point Hope Airport 29 41 1.25 -20/-22 29.80 PAPO 301856Z AUTO 04029G41KT 1 1/4SM -SN BR OVC010 M21/M23 A2980 RMK AO2 PK WND 03042/1816 CIG 007V013 SLP091 T12061228 FZRANO PNO $
CWSF 28 35 -1/-4 CWSF 301800Z AUTO 31028G35KT M02/M05 RMK AO1 2PAST HR 6010 PK WND 31035/1753 SLP970 P0001 T10151047 50002
FSP LFVP Saint-Pierre, PM St Pierre Airport 28 1.86 7/7 29.26 LFVP 301800Z 25028KT 3000 -DZRA BR BKN008 BKN041 07/07 Q0991 NOSIG
ETHN Niederstetten, DE Niederstetten Army Air Base 28 46 3.73 1/1 29.76 ETHN 301820Z 26028G46KT 6000 R25/0250N -RASN BKN003 OVC008 01/01 Q1008 YLO YLO
MUC EDDM Munich, DE Munich Airport 28 39 6.21 2/0 29.82 EDDM 301850Z 25028G39KT 9999 -RA FEW007 BKN019 02/00 Q1010 NOSIG
K1AM 28 38 10 10/-6 29.95 K1AM 301858Z AUTO 22028G38KT 10SM BKN080 BKN130 10/M06 A2995 RMK AO2 PK WND 22038/1758 SLP109 T01031065 $
K1GM 28 35 10 7/-4 29.95 K1GM 301858Z AUTO 23028G35KT 10SM BKN060 08/M04 A2995 RMK AO2 PK WND 22036/36 SLP158 T00791044 $
RJOP Komatsushima, JP JMSDF Komatsushima Heliport 27 42 6.21 15/9 29.59 RJOP 301751Z 30027G42KT 260V330 9999 FEW008 BKN020 BKN100 15/09 Q1002 RMK 2ST008 6CU020 7AC100 A2961
CWKK 27 0/-4 CWKK 301800Z AUTO 31027KT 01/M04 RMK AO1 SOG 03 1009 PK WND 31032/1740 SLP095 T00061042
CWSA 27 39 9 6/0 29.65 CWSA 301800Z AUTO 26027G39KT 9SM SCT036 BKN045 06/00 A2965 RMK SLP041
BBA SCBA Balmaceda, CL Balmaceda Airport 27 6.21 19/5 29.73 SCBA 301800Z 31027KT 9999 FEW100 19/05 Q1007 RMK AC LENT IRREG BLANCOS BRILLANTES W SW STN
AOK LGKP Karpathos Island, GR Karpathos Airport 27 18/9 29.94 LGKP 301830Z AUTO 28027KT //// // ////// 18/09 Q1014 RERA
OKA ROAH Naha, JP Naha Airport 27 37 6.21 19/11 30.00 ROAH 301830Z 35027G37KT 9999 FEW038 BKN045 BKN130 19/11 Q1016 RMK 2CU038 5SC045 6AC130 A3003
SYA PASY Shemya, US Eareckson Air Station 27 30 7 3/1 29.70 PASY 301832Z COR 23027G30KT 7SM -RA FEW014 SCT019 BKN037 OVC055 03/01 A2970 RMK AO2A SLP061 RVRNO PNO $ COR 1833
KDUX Dumas, US Moore County Airport 27 37 7 13/-1 30.11 KDUX 301835Z AUTO 34027G37KT 7SM CLR 14/M01 A3011 RMK AO2 T01361011
TKS RJOS Tokushima, JP Tokushima Airport/JMSDF Air Base 27 41 6.21 14/8 29.65 RJOS 301841Z 30027G41KT 9999 FEW015 SCT045 BKN080 14/08 Q1004 RMK 2CU015 4SC045 6AC080 A2966
UTO PAIM Utopia Creek, US Indian Mountain LRRS Airport 27 46 8 -18/-27 29.30 PAIM 301855Z AUTO 06027G46KT 040V110 8SM -SHSN BKN120 BKN150 M19/M27 A2930 RMK AO2 SHSNB1641 SLP976 T11861275
K1NM 27 36 10 11/-8 29.87 K1NM 301858Z AUTO 26027G36KT 10SM FEW075 11/M08 A2987 RMK AO2 PK WND 26038/35 SLP136 T01141080 $
CWOE 26 10/-2 CWOE 301800Z AUTO 00026KT 11/M02 RMK AO1 SLP111 T01061022 56001
YGJ RJOH Yonago, JP Yonago Kitaro Airport / JASDF Miho Air Base 26 39 6.21 10/5 29.68 RJOH 301800Z 26026G39KT 9999 -SHRA FEW015 BKN025 BKN030 10/05 Q1005
YYT CYYT St. John's, CA St. John's International Airport 26 39 12 12/12 29.29 CYYT 301821Z 20026G39KT 12SM -DZ OVC004 12/12 A2929 RMK ST8 SLP922 DENSITY ALT 1000FT
MFM VMMC Macau, MO Macau International Airport 26 6.21 17/8 30.12 VMMC 301830Z 36026KT CAVOK 17/08 Q1020 NOSIG
YAM CYAM Sault Ste Marie, CA Sault Ste Marie Airport 26 33 5 2/1 29.68 CYAM 301848Z 30026G33KT 5SM -SHPL FEW005 BKN016 OVC026TCU 02/01 A2968 RMK CF1CU5TCU2 CIG VRB 12-20 OCNL -SHRA SLP063
ENUN 26 2/-6 29.17 ENUN 301850Z AUTO 32026KT 9999NDV FEW038/// SCT063/// 02/M06 Q0988 W06/S/
DHT KDHT Dalhart, US Dalhart Municipal Airport 26 35 10 15/-1 30.16 KDHT 301853Z AUTO 01026G35KT 10SM CLR 16/M01 A3016 RMK AO2 PK WND 02039/1838 SLP196 T01561011
CDB PACD Cold Bay, US Cold Bay Airport 26 33 1.5 -7/-10 29.55 PACD 301853Z 32026G33KT 1 1/2SM -SN BLSN BKN033 BKN055 M08/M11 A2955 RMK AO2 PK WND 32038/1806 SNEMMB18SNEMMB35 SLP010 P0001 T10781106 $
CTB KCTB Cut Bank, US Cut Bank International Airport 26 33 10 8/-1 29.88 KCTB 301856Z AUTO 24026G33KT 10SM CLR 09/M02 A2988 RMK AO2 PK WND 24033/1856 SLP120 T00891017
K1IM 26 32 10 10/-4 29.96 K1IM 301858Z AUTO 25026G32KT 10SM SCT085 BKN140 11/M05 A2996 RMK AO2 PK WND 24032/53 SLP170 T01051049 $
K1OM 26 32 10 11/-4 29.87 K1OM 301858Z AUTO 27026G32KT 10SM FEW065 11/M04 A2987 RMK AO2 PK WND 27035/38 SLP130 T01101041 $